KANW/ANW METAR and TAF weather

Enter ICAO airport designator
Station Type Date Time Source
KANW METAR 2021/07/28 20:55 UTC NOAA

KANW 282055Z AUTO 20012G15KT 10SM SCT090 37/17 A2999 RMK AO2 60003 T03680167


Station Type Date Time Source
KANW Decoded METAR 2021/07/28 20:55 UTC NOAA

Ainsworth Municipal, NE, United States (KANW) 42-35N 100-00W
Jul 28, 2021 - 04:55 PM EDT / 2021.07.28 2055 UTC
Wind: from the SSW (200 degrees) at 14 MPH (12 KT) gusting to 17 MPH (15 KT):0
Visibility: 10 mile(s):0
Sky conditions: partly cloudy
Temperature: 98.2 F (36.8 C)
Heat index: 99.3 F (37.4 C):1
Dew Point: 62.1 F (16.7 C)
Relative Humidity: 30%
Pressure (altimeter): 29.99 in. Hg (1015 hPa)
ob: KANW 282055Z AUTO 20012G15KT 10SM SCT090 37/17 A2999 RMK AO2 60003 T03680167
cycle: 21

Station Type Date Time Source
KANW TAF UTC NOAA

Error!

Example: see airport list